Time;durP1;ratioP1;P1;durP2;ratioP2;P2;SDS_P1;SDS_P2;PMS_P1;PMS_P2;Temp;Humidity;BMP_temperature;BMP_pressure;BME280_temperature;BME280_humidity;BME280_pressure;Samples;Min_cycle;Max_cycle;Signal;HPM_P1;HPM_P2
2021/04/01 00:00:08;;;;;;;;;;;20.10;56.40;;;;;;4977966;28;19925;-70
2021/04/01 00:02:34;;;;;;;;;;;20.10;56.50;;;;;;4967581;28;19933;-70
2021/04/01 00:05:00;;;;;;;;;;;20.10;56.80;;;;;;4978714;28;20080;-70
2021/04/01 00:07:26;;;;;;;;;;;20.10;56.70;;;;;;4979018;28;20418;-70
2021/04/01 00:09:52;;;;;;;;;;;20.10;56.70;;;;;;4977220;28;19926;-70
2021/04/01 00:12:19;;;;;;;;;;;20.10;56.50;;;;;;4974554;28;19925;-70
2021/04/01 00:14:45;;;;;;;;;;;20.10;57.00;;;;;;4944773;28;19981;-70
2021/04/01 00:17:11;;;;;;;;;;;20.10;56.60;;;;;;4979330;28;19988;-70
2021/04/01 00:19:37;;;;;;;;;;;20.10;56.70;;;;;;4966189;28;19962;-70
2021/04/01 00:22:03;;;;;;;;;;;20.10;56.90;;;;;;4980899;28;19925;-70
2021/04/01 00:24:29;;;;;;;;;;;20.10;56.50;;;;;;4963543;28;19925;-70
2021/04/01 00:26:56;;;;;;;;;;;20.10;56.50;;;;;;4977297;28;20310;-72
2021/04/01 00:29:23;;;;;;;;;;;20.10;56.70;;;;;;4977087;28;19996;-70
2021/04/01 00:31:49;;;;;;;;;;;20.10;56.60;;;;;;4974554;28;19926;-70
2021/04/01 00:34:15;;;;;;;;;;;20.10;56.60;;;;;;4976686;28;21598;-71
2021/04/01 00:36:40;;;;;;;;;;;20.10;56.50;;;;;;4980638;28;19934;-70
2021/04/01 00:39:09;;;;;;;;;;;20.10;56.40;;;;;;4978684;28;19946;-70
2021/04/01 00:41:35;;;;;;;;;;;20.10;56.40;;;;;;4973731;28;19958;-70
2021/04/01 00:44:04;;;;;;;;;;;20.10;56.10;;;;;;4975253;28;19933;-70
2021/04/01 00:46:31;;;;;;;;;;;20.10;56.10;;;;;;4976916;28;19934;-70
2021/04/01 00:48:57;;;;;;;;;;;20.10;56.10;;;;;;4978184;28;19926;-70
2021/04/01 00:51:23;;;;;;;;;;;20.10;56.20;;;;;;4974471;28;19925;-72
2021/04/01 00:53:49;;;;;;;;;;;20.10;56.00;;;;;;4977528;28;19932;-70
2021/04/01 00:56:15;;;;;;;;;;;20.10;55.20;;;;;;4971891;28;19929;-70
2021/04/01 00:58:41;;;;;;;;;;;20.20;55.30;;;;;;4964501;28;19926;-70
2021/04/01 01:01:20;;;;;;;;;;;20.20;55.30;;;;;;4966709;28;19929;-70
2021/04/01 01:03:47;;;;;;;;;;;20.20;55.40;;;;;;4976842;28;19983;-71
2021/04/01 01:06:13;;;;;;;;;;;20.20;55.30;;;;;;4977929;28;19926;-70
2021/04/01 01:08:39;;;;;;;;;;;20.30;55.40;;;;;;4975336;28;19930;-70
2021/04/01 01:11:05;;;;;;;;;;;20.30;55.40;;;;;;4971473;28;19976;-70
2021/04/01 01:13:31;;;;;;;;;;;20.30;55.40;;;;;;4971477;28;19926;-70
2021/04/01 01:15:57;;;;;;;;;;;20.30;55.40;;;;;;4977549;28;19926;-70
2021/04/01 01:18:26;;;;;;;;;;;20.30;55.40;;;;;;4976598;28;19925;-70
2021/04/01 01:20:52;;;;;;;;;;;20.30;55.50;;;;;;4967489;28;19925;-70
2021/04/01 01:23:19;;;;;;;;;;;20.30;55.40;;;;;;4976068;28;19958;-70
2021/04/01 01:25:46;;;;;;;;;;;20.30;55.40;;;;;;4962966;28;19926;-70
2021/04/01 01:28:12;;;;;;;;;;;20.20;55.30;;;;;;4973844;28;19996;-70
2021/04/01 01:30:38;;;;;;;;;;;20.20;55.30;;;;;;4974839;28;19968;-70
2021/04/01 01:33:07;;;;;;;;;;;20.20;55.30;;;;;;4969920;28;21176;-70
2021/04/01 01:35:33;;;;;;;;;;;20.20;55.30;;;;;;4977180;28;19948;-70
2021/04/01 01:38:00;;;;;;;;;;;20.20;55.30;;;;;;4976755;28;19947;-70
2021/04/01 01:40:26;;;;;;;;;;;20.20;55.30;;;;;;4972113;28;20340;-71
2021/04/01 01:42:54;;;;;;;;;;;20.20;55.30;;;;;;4972260;28;19929;-71
2021/04/01 01:45:20;;;;;;;;;;;20.20;55.30;;;;;;4975036;28;19926;-70
2021/04/01 01:47:46;;;;;;;;;;;20.20;55.30;;;;;;4977296;28;19932;-70
2021/04/01 01:50:12;;;;;;;;;;;20.20;55.30;;;;;;4976343;28;20305;-70
2021/04/01 01:52:38;;;;;;;;;;;20.20;55.30;;;;;;4959690;28;19933;-70
2021/04/01 01:55:05;;;;;;;;;;;20.20;55.30;;;;;;4973829;28;19932;-70
2021/04/01 01:57:32;;;;;;;;;;;20.20;55.30;;;;;;4974822;28;19925;-70
2021/04/01 01:59:59;;;;;;;;;;;20.20;55.30;;;;;;4980991;28;19929;-70
2021/04/01 02:02:25;;;;;;;;;;;20.20;55.30;;;;;;4973632;28;19933;-70
2021/04/01 02:04:51;;;;;;;;;;;20.20;55.30;;;;;;4977569;28;19925;-70
2021/04/01 02:07:17;;;;;;;;;;;20.20;55.30;;;;;;4976530;28;20634;-70
2021/04/01 02:09:45;;;;;;;;;;;20.20;55.30;;;;;;4974252;28;19980;-70
2021/04/01 02:12:11;;;;;;;;;;;20.20;55.30;;;;;;4973494;28;19980;-71
2021/04/01 02:14:37;;;;;;;;;;;20.20;55.30;;;;;;4972598;28;20009;-70
2021/04/01 02:17:04;;;;;;;;;;;20.20;55.30;;;;;;4979373;28;19930;-70
2021/04/01 02:19:30;;;;;;;;;;;20.20;55.30;;;;;;4963887;28;20385;-70
2021/04/01 02:21:56;;;;;;;;;;;20.20;55.30;;;;;;4982561;28;19922;-71
2021/04/01 02:24:22;;;;;;;;;;;20.20;55.30;;;;;;4993060;28;19992;-71
2021/04/01 02:26:48;;;;;;;;;;;20.20;55.30;;;;;;4989729;28;19926;-71
2021/04/01 02:29:14;;;;;;;;;;;20.20;55.30;;;;;;4972190;28;19925;-70
2021/04/01 02:31:40;;;;;;;;;;;20.10;55.20;;;;;;4973726;28;19926;-70
2021/04/01 02:34:07;;;;;;;;;;;20.10;55.20;;;;;;4977131;28;19933;-70
2021/04/01 02:36:33;;;;;;;;;;;20.10;55.20;;;;;;4965570;28;20062;-69
2021/04/01 02:38:59;;;;;;;;;;;20.10;55.20;;;;;;4964707;28;20642;-70
2021/04/01 02:41:25;;;;;;;;;;;20.10;55.20;;;;;;4971548;28;19973;-70
2021/04/01 02:43:51;;;;;;;;;;;20.10;55.20;;;;;;4971354;28;19933;-70
2021/04/01 02:46:17;;;;;;;;;;;20.20;55.40;;;;;;4976018;28;20476;-70
2021/04/01 02:48:43;;;;;;;;;;;20.20;55.30;;;;;;4973355;28;19926;-70
2021/04/01 02:51:10;;;;;;;;;;;20.20;55.30;;;;;;4974218;28;19933;-70
2021/04/01 02:53:36;;;;;;;;;;;20.20;55.30;;;;;;4965004;28;19930;-70
2021/04/01 02:56:02;;;;;;;;;;;20.20;55.30;;;;;;4975399;28;19925;-70
2021/04/01 02:58:28;;;;;;;;;;;20.20;55.30;;;;;;4963703;28;19957;-70
2021/04/01 03:00:55;;;;;;;;;;;20.20;55.30;;;;;;4975422;28;19925;-70
2021/04/01 03:03:23;;;;;;;;;;;20.20;55.20;;;;;;4972899;28;20051;-70
2021/04/01 03:05:49;;;;;;;;;;;20.20;55.40;;;;;;4970911;28;19972;-70
2021/04/01 03:08:16;;;;;;;;;;;20.20;55.30;;;;;;4970678;28;19929;-70
2021/04/01 03:10:42;;;;;;;;;;;20.20;55.30;;;;;;4975798;28;19926;-70
2021/04/01 03:13:09;;;;;;;;;;;20.20;55.30;;;;;;4968143;28;19926;-71
2021/04/01 03:15:35;;;;;;;;;;;20.30;54.90;;;;;;4947094;28;19934;-70
2021/04/01 03:18:01;;;;;;;;;;;20.30;54.70;;;;;;4967979;28;20386;-70
2021/04/01 03:20:27;;;;;;;;;;;20.40;54.50;;;;;;4973346;28;19926;-70
2021/04/01 03:22:53;;;;;;;;;;;20.40;54.30;;;;;;4976957;28;20378;-70
2021/04/01 03:25:19;;;;;;;;;;;20.50;54.30;;;;;;4972933;28;19930;-70
2021/04/01 03:27:45;;;;;;;;;;;20.50;54.20;;;;;;4970381;28;19980;-71
2021/04/01 03:30:12;;;;;;;;;;;20.50;54.10;;;;;;4965802;28;19929;-70
2021/04/01 03:32:39;;;;;;;;;;;20.60;54.10;;;;;;4972124;28;19933;-70
2021/04/01 03:35:05;;;;;;;;;;;20.60;53.80;;;;;;4975785;28;20306;-70
2021/04/01 03:37:31;;;;;;;;;;;20.60;54.00;;;;;;4972913;28;19933;-70
2021/04/01 03:39:57;;;;;;;;;;;20.60;53.90;;;;;;4971723;28;19929;-71
2021/04/01 03:42:25;;;;;;;;;;;20.60;53.90;;;;;;4971792;28;19933;-70
2021/04/01 03:44:51;;;;;;;;;;;20.60;54.00;;;;;;4943962;28;19961;-70
2021/04/01 03:47:17;;;;;;;;;;;20.60;53.90;;;;;;4973051;28;20401;-71
2021/04/01 03:49:43;;;;;;;;;;;20.60;53.90;;;;;;4976599;28;19930;-71
2021/04/01 03:52:09;;;;;;;;;;;20.50;53.80;;;;;;4979600;28;19972;-71
2021/04/01 03:54:35;;;;;;;;;;;20.60;53.80;;;;;;4974504;28;19925;-71
2021/04/01 03:57:02;;;;;;;;;;;20.60;53.80;;;;;;4979773;28;19932;-70
2021/04/01 03:59:35;;;;;;;;;;;20.60;53.70;;;;;;4975709;28;19933;-71
2021/04/01 04:02:13;;;;;;;;;;;20.60;53.50;;;;;;4974943;28;20374;-72
2021/04/01 04:04:47;;;;;;;;;;;20.60;53.50;;;;;;4975159;28;19981;-70
2021/04/01 04:10:28;;;;;;;;;;;20.60;53.50;;;;;;4975250;28;19925;-71
2021/04/01 04:13:07;;;;;;;;;;;20.60;53.50;;;;;;4933749;28;19930;-70
2021/04/01 04:15:34;;;;;;;;;;;20.60;53.30;;;;;;4975788;28;19976;-71
2021/04/01 04:18:00;;;;;;;;;;;20.60;53.30;;;;;;4981199;28;19925;-71
2021/04/01 04:20:26;;;;;;;;;;;20.60;53.30;;;;;;4978068;28;19926;-70
2021/04/01 04:22:52;;;;;;;;;;;20.60;53.20;;;;;;4979322;28;19926;-70
2021/04/01 04:25:18;;;;;;;;;;;20.60;53.10;;;;;;4973261;28;19957;-71
2021/04/01 04:27:59;;;;;;;;;;;20.60;53.00;;;;;;4967750;28;21384;-71
2021/04/01 04:30:26;;;;;;;;;;;20.60;53.00;;;;;;4949154;28;20637;-71
2021/04/01 04:32:52;;;;;;;;;;;20.60;52.90;;;;;;4975058;28;19926;-71
2021/04/01 04:35:18;;;;;;;;;;;20.60;53.00;;;;;;4978006;28;19979;-70
2021/04/01 04:37:44;;;;;;;;;;;20.60;52.90;;;;;;4979317;28;19933;-71
2021/04/01 04:40:11;;;;;;;;;;;20.60;52.80;;;;;;4978405;28;20350;-70
2021/04/01 04:42:37;;;;;;;;;;;20.60;52.80;;;;;;4973325;28;19933;-71
2021/04/01 04:45:03;;;;;;;;;;;20.60;52.90;;;;;;4975255;28;19933;-71
2021/04/01 04:47:30;;;;;;;;;;;20.60;52.80;;;;;;4967844;28;20970;-71
2021/04/01 04:49:57;;;;;;;;;;;20.60;52.90;;;;;;4980957;28;19972;-70
2021/04/01 04:52:23;;;;;;;;;;;20.60;52.90;;;;;;4977319;28;19996;-70
2021/04/01 04:54:49;;;;;;;;;;;20.60;52.90;;;;;;4965372;28;20079;-71
2021/04/01 04:57:19;;;;;;;;;;;20.60;52.70;;;;;;4976375;28;20313;-71
2021/04/01 05:00:00;;;;;;;;;;;20.60;52.70;;;;;;4978860;28;19926;-71
2021/04/01 05:05:12;;;;;;;;;;;20.60;52.90;;;;;;4978872;28;20456;-71
2021/04/01 05:07:38;;;;;;;;;;;20.60;52.20;;;;;;4975897;28;20012;-71
2021/04/01 05:10:04;;;;;;;;;;;20.60;52.70;;;;;;4963945;28;20397;-70
2021/04/01 05:12:30;;;;;;;;;;;20.60;52.60;;;;;;4962093;28;19925;-71
2021/04/01 05:14:56;;;;;;;;;;;20.60;52.60;;;;;;4963948;28;19981;-71
2021/04/01 05:17:23;;;;;;;;;;;20.60;52.60;;;;;;4965855;28;19930;-71
2021/04/01 05:19:52;;;;;;;;;;;20.60;52.50;;;;;;4975650;28;19964;-71
2021/04/01 05:22:22;;;;;;;;;;;20.70;52.60;;;;;;4964587;28;19929;-71
2021/04/01 05:24:51;;;;;;;;;;;20.70;52.60;;;;;;4971915;28;20012;-70
2021/04/01 05:27:21;;;;;;;;;;;20.60;52.50;;;;;;4975815;28;19975;-71
2021/04/01 05:29:59;;;;;;;;;;;20.60;52.60;;;;;;4973850;28;19957;-71
2021/04/01 05:32:26;;;;;;;;;;;20.60;52.50;;;;;;4964972;28;19929;-72
2021/04/01 05:34:52;;;;;;;;;;;20.60;52.50;;;;;;4976743;28;19926;-71
2021/04/01 05:37:20;;;;;;;;;;;20.60;52.40;;;;;;4977397;28;19980;-71
2021/04/01 05:39:47;;;;;;;;;;;20.60;52.50;;;;;;4980205;28;19969;-71
2021/04/01 05:42:14;;;;;;;;;;;20.60;52.40;;;;;;4973109;28;19933;-71
2021/04/01 05:44:44;;;;;;;;;;;20.60;52.40;;;;;;4972074;28;20457;-71
2021/04/01 05:47:13;;;;;;;;;;;20.60;52.50;;;;;;4978993;28;19968;-71
2021/04/01 05:49:48;;;;;;;;;;;20.60;52.50;;;;;;4972537;28;20342;-71
2021/04/01 05:58:01;;;;;;;;;;;20.50;52.50;;;;;;4981266;28;19932;-71
2021/04/01 06:00:49;;;;;;;;;;;20.50;52.50;;;;;;4957433;28;20016;-71
2021/04/01 06:03:27;;;;;;;;;;;20.60;52.50;;;;;;4965363;28;19956;-70
2021/04/01 06:05:55;;;;;;;;;;;20.60;52.60;;;;;;4968247;28;20401;-70
2021/04/01 06:08:23;;;;;;;;;;;20.60;52.40;;;;;;4971882;28;19930;-70
2021/04/01 06:10:50;;;;;;;;;;;20.60;52.40;;;;;;4978931;28;20024;-71
2021/04/01 06:13:17;;;;;;;;;;;20.60;52.40;;;;;;4969180;28;19929;-71
2021/04/01 06:15:44;;;;;;;;;;;20.60;52.40;;;;;;4963125;28;19968;-71
2021/04/01 06:18:11;;;;;;;;;;;20.60;52.30;;;;;;4972855;28;19929;-72
2021/04/01 06:20:37;;;;;;;;;;;20.60;52.20;;;;;;4976759;28;20045;-70
2021/04/01 06:23:03;;;;;;;;;;;20.60;53.00;;;;;;4977139;28;19976;-71
2021/04/01 06:25:32;;;;;;;;;;;20.60;52.20;;;;;;4974224;28;19926;-70
2021/04/01 06:27:58;;;;;;;;;;;20.60;52.30;;;;;;4951402;28;19932;-70
2021/04/01 06:30:26;;;;;;;;;;;20.50;52.10;;;;;;4974822;28;19980;-70
2021/04/01 06:32:58;;;;;;;;;;;20.50;52.10;;;;;;4965569;28;20002;-70
2021/04/01 06:35:27;;;;;;;;;;;20.50;52.20;;;;;;4974370;28;19926;-70
2021/04/01 06:38:13;;;;;;;;;;;20.50;52.10;;;;;;4974001;28;19926;-71
2021/04/01 06:40:39;;;;;;;;;;;20.50;52.10;;;;;;4968512;28;19975;-70
2021/04/01 06:43:09;;;;;;;;;;;20.50;52.00;;;;;;4970101;28;19941;-70
2021/04/01 06:45:35;;;;;;;;;;;20.50;52.10;;;;;;4961037;28;20397;-70
2021/04/01 06:48:01;;;;;;;;;;;20.50;52.10;;;;;;4977815;28;19925;-70
2021/04/01 06:50:30;;;;;;;;;;;20.50;52.10;;;;;;4976257;28;19926;-70
2021/04/01 06:53:01;;;;;;;;;;;20.50;52.10;;;;;;4976893;28;19973;-70
2021/04/01 06:55:30;;;;;;;;;;;20.50;52.00;;;;;;4972321;28;20037;-70
2021/04/01 06:58:06;;;;;;;;;;;20.50;52.10;;;;;;4977030;28;19926;-69
2021/04/01 07:00:43;;;;;;;;;;;20.50;52.10;;;;;;4973902;28;19933;-70
2021/04/01 07:03:13;;;;;;;;;;;20.50;52.10;;;;;;4967396;28;19945;-70
2021/04/01 07:05:45;;;;;;;;;;;20.50;52.00;;;;;;4966818;28;19953;-70
2021/04/01 07:08:12;;;;;;;;;;;20.50;52.10;;;;;;4966671;28;20060;-70
2021/04/01 07:10:50;;;;;;;;;;;20.50;52.00;;;;;;4973250;28;19976;-69
2021/04/01 07:13:18;;;;;;;;;;;20.60;52.00;;;;;;4972129;28;20317;-70
2021/04/01 07:15:47;;;;;;;;;;;20.60;52.00;;;;;;4968818;28;20329;-70
2021/04/01 07:18:34;;;;;;;;;;;20.60;52.00;;;;;;4972160;28;19932;-70
2021/04/01 07:32:35;;;;;;;;;;;20.50;52.00;;;;;;4974519;28;19988;-71
2021/04/01 07:35:22;;;;;;;;;;;20.50;52.10;;;;;;4968803;28;19925;-70
2021/04/01 07:48:57;;;;;;;;;;;20.50;52.00;;;;;;4966354;28;19960;-69
2021/04/01 07:51:33;;;;;;;;;;;20.50;52.00;;;;;;4976250;28;20028;-70
2021/04/01 07:53:59;;;;;;;;;;;20.50;52.10;;;;;;4952792;28;19929;-70
2021/04/01 07:56:29;;;;;;;;;;;20.50;52.00;;;;;;4975314;28;20307;-70
2021/04/01 07:59:02;;;;;;;;;;;20.50;52.00;;;;;;4980094;28;19925;-71
2021/04/01 08:01:40;;;;;;;;;;;20.50;51.90;;;;;;4972309;28;19925;-70
2021/04/01 08:04:07;;;;;;;;;;;20.50;52.10;;;;;;4975408;28;20309;-71
2021/04/01 08:06:35;;;;;;;;;;;20.50;52.00;;;;;;4976913;28;19940;-70
2021/04/01 08:09:03;;;;;;;;;;;20.50;52.00;;;;;;4980862;28;19980;-69
2021/04/01 08:11:33;;;;;;;;;;;20.50;52.00;;;;;;4976934;28;19965;-70
2021/04/01 08:14:03;;;;;;;;;;;20.50;52.10;;;;;;4973790;28;19936;-71
2021/04/01 08:16:30;;;;;;;;;;;20.50;52.10;;;;;;4940286;28;20419;-71
2021/04/01 08:18:56;;;;;;;;;;;20.40;52.00;;;;;;4979605;28;19976;-70
2021/04/01 08:21:23;;;;;;;;;;;20.50;52.10;;;;;;4979044;28;19930;-70
2021/04/01 08:23:53;;;;;;;;;;;20.40;52.10;;;;;;4976857;28;19967;-70
2021/04/01 08:26:23;;;;;;;;;;;20.50;52.00;;;;;;4976582;28;20448;-70
2021/04/01 08:29:05;;;;;;;;;;;20.50;52.10;;;;;;4980190;28;19929;-70
2021/04/01 08:31:52;;;;;;;;;;;20.50;52.00;;;;;;4965623;28;19985;-70
2021/04/01 08:34:31;;;;;;;;;;;20.50;52.10;;;;;;4976766;28;20397;-69
2021/04/01 08:36:58;;;;;;;;;;;20.50;52.70;;;;;;4981202;28;19926;-70
2021/04/01 08:39:24;;;;;;;;;;;20.50;51.90;;;;;;4974209;28;20011;-71
2021/04/01 08:42:05;;;;;;;;;;;20.50;52.70;;;;;;4977200;28;19929;-70
2021/04/01 08:44:36;;;;;;;;;;;20.50;51.90;;;;;;4933352;28;20964;-71
2021/04/01 08:47:05;;;;;;;;;;;20.50;52.00;;;;;;4955263;28;19925;-70
2021/04/01 08:49:32;;;;;;;;;;;20.50;51.90;;;;;;4944029;28;19930;-70
2021/04/01 08:52:16;;;;;;;;;;;20.50;52.00;;;;;;4959643;28;20395;-71
2021/04/01 08:54:44;;;;;;;;;;;20.50;51.90;;;;;;4972133;28;19928;-70
2021/04/01 08:57:10;;;;;;;;;;;20.50;51.90;;;;;;4977990;28;20344;-70
2021/04/01 08:59:40;;;;;;;;;;;20.50;52.60;;;;;;4974449;28;19933;-71
2021/04/01 09:02:06;;;;;;;;;;;20.50;51.90;;;;;;4969474;28;19975;-70
2021/04/01 09:04:32;;;;;;;;;;;20.50;51.90;;;;;;4975616;28;19935;-70
2021/04/01 09:06:59;;;;;;;;;;;20.50;52.00;;;;;;4979635;28;19936;-70
2021/04/01 09:09:29;;;;;;;;;;;20.50;52.00;;;;;;4976095;28;19991;-70
2021/04/01 09:12:01;;;;;;;;;;;20.50;51.90;;;;;;4971144;28;19945;-70
2021/04/01 09:14:29;;;;;;;;;;;20.50;51.80;;;;;;4971468;28;19980;-71
2021/04/01 09:16:59;;;;;;;;;;;20.50;52.00;;;;;;4971039;28;19965;-70
2021/04/01 09:19:25;;;;;;;;;;;20.50;52.00;;;;;;4967721;28;20271;-70
2021/04/01 09:21:52;;;;;;;;;;;20.50;51.90;;;;;;4986418;28;19930;-70
2021/04/01 09:24:18;;;;;;;;;;;20.50;51.80;;;;;;4985624;28;19926;-71
2021/04/01 09:26:47;;;;;;;;;;;20.50;51.90;;;;;;4992192;28;19932;-72
2021/04/01 09:29:15;;;;;;;;;;;20.50;51.80;;;;;;4982744;28;19925;-70
2021/04/01 09:31:43;;;;;;;;;;;20.50;52.00;;;;;;4964616;28;19934;-70
2021/04/01 09:34:10;;;;;;;;;;;20.50;52.00;;;;;;4979399;28;19991;-71
2021/04/01 09:36:37;;;;;;;;;;;20.50;52.00;;;;;;4968014;28;20406;-70
2021/04/01 09:39:13;;;;;;;;;;;20.50;51.90;;;;;;4977637;28;20282;-70
2021/04/01 09:41:40;;;;;;;;;;;20.50;52.00;;;;;;4965807;28;19945;-70
2021/04/01 09:44:06;;;;;;;;;;;20.50;52.00;;;;;;4975576;28;20397;-71
2021/04/01 09:46:34;;;;;;;;;;;20.50;52.00;;;;;;4965814;28;20295;-70
2021/04/01 09:49:00;;;;;;;;;;;20.50;52.00;;;;;;4979474;28;19932;-70
2021/04/01 09:51:29;;;;;;;;;;;20.50;52.10;;;;;;4975176;28;20028;-70
2021/04/01 09:53:55;;;;;;;;;;;20.40;52.00;;;;;;4976803;28;20386;-70
2021/04/01 09:56:21;;;;;;;;;;;20.50;52.00;;;;;;4975537;28;19929;-70
2021/04/01 09:58:47;;;;;;;;;;;20.50;52.10;;;;;;4977908;28;19925;-71
2021/04/01 10:01:26;;;;;;;;;;;20.40;52.00;;;;;;4974781;28;19980;-71
2021/04/01 10:03:55;;;;;;;;;;;20.40;52.10;;;;;;4973807;28;19926;-71
2021/04/01 10:06:26;;;;;;;;;;;20.40;52.20;;;;;;4976704;28;19925;-71
2021/04/01 10:08:52;;;;;;;;;;;20.40;52.00;;;;;;4975296;28;20509;-70
2021/04/01 10:11:19;;;;;;;;;;;20.40;52.00;;;;;;4961284;28;19929;-70
2021/04/01 10:13:45;;;;;;;;;;;20.40;52.10;;;;;;4972115;28;19957;-69
2021/04/01 10:16:20;;;;;;;;;;;20.40;52.10;;;;;;4974413;28;19925;-71
2021/04/01 10:18:46;;;;;;;;;;;20.40;52.10;;;;;;4975507;28;19930;-70
2021/04/01 10:21:13;;;;;;;;;;;20.40;52.00;;;;;;4974574;28;19932;-70
2021/04/01 10:23:42;;;;;;;;;;;20.40;52.10;;;;;;4976120;28;20005;-71
2021/04/01 10:26:09;;;;;;;;;;;20.40;52.00;;;;;;4964439;28;19972;-70
2021/04/01 10:28:43;;;;;;;;;;;20.40;52.10;;;;;;4977734;28;19926;-70
2021/04/01 10:31:10;;;;;;;;;;;20.40;52.00;;;;;;4975189;28;19992;-70
2021/04/01 10:33:37;;;;;;;;;;;20.40;52.00;;;;;;4962643;28;21067;-71
2021/04/01 10:36:04;;;;;;;;;;;20.40;52.10;;;;;;4981441;28;20015;-70
2021/04/01 10:38:31;;;;;;;;;;;20.40;52.00;;;;;;4963980;28;19957;-70
2021/04/01 10:41:04;;;;;;;;;;;20.40;52.00;;;;;;4978975;28;20004;-70
2021/04/01 10:43:32;;;;;;;;;;;20.40;52.00;;;;;;4969627;28;20005;-70
2021/04/01 10:45:58;;;;;;;;;;;20.40;52.10;;;;;;4978273;28;20847;-71
2021/04/01 10:48:29;;;;;;;;;;;20.40;52.00;;;;;;4976928;28;19925;-71
2021/04/01 10:50:58;;;;;;;;;;;20.40;52.00;;;;;;4979757;28;19926;-70
2021/04/01 10:53:25;;;;;;;;;;;20.40;52.00;;;;;;4973866;28;20012;-70
2021/04/01 10:55:52;;;;;;;;;;;20.40;51.80;;;;;;4976800;28;19987;-70
2021/04/01 10:58:18;;;;;;;;;;;20.40;51.80;;;;;;4977485;28;19932;-70
2021/04/01 11:00:50;;;;;;;;;;;20.40;51.90;;;;;;4980186;28;20345;-70
2021/04/01 11:03:16;;;;;;;;;;;20.40;51.90;;;;;;4976609;28;19926;-70
2021/04/01 11:05:42;;;;;;;;;;;20.40;51.90;;;;;;4983458;28;20013;-70
2021/04/01 11:08:09;;;;;;;;;;;20.40;51.90;;;;;;4980887;28;19933;-70
2021/04/01 11:10:36;;;;;;;;;;;20.40;51.90;;;;;;4979816;28;20302;-71
2021/04/01 11:13:03;;;;;;;;;;;20.40;51.80;;;;;;4974741;28;19926;-71
2021/04/01 11:15:30;;;;;;;;;;;20.40;51.90;;;;;;4977083;28;21549;-70
2021/04/01 11:17:58;;;;;;;;;;;20.40;51.90;;;;;;4981544;28;19925;-70
2021/04/01 11:20:25;;;;;;;;;;;20.40;51.90;;;;;;4979974;28;19984;-70
2021/04/01 11:23:11;;;;;;;;;;;20.40;51.80;;;;;;4982205;28;19950;-70
2021/04/01 11:25:38;;;;;;;;;;;20.40;51.70;;;;;;4959084;28;20350;-70
2021/04/01 11:28:05;;;;;;;;;;;20.40;51.80;;;;;;4981543;28;19980;-71
2021/04/01 11:30:46;;;;;;;;;;;20.40;51.90;;;;;;4977953;28;20506;-70
2021/04/01 11:33:12;;;;;;;;;;;20.40;51.60;;;;;;4975194;28;19926;-70
2021/04/01 11:35:39;;;;;;;;;;;20.40;51.70;;;;;;4981052;28;20394;-70
2021/04/01 11:38:09;;;;;;;;;;;20.40;51.70;;;;;;4974607;28;19933;-70
2021/04/01 11:40:36;;;;;;;;;;;20.30;51.70;;;;;;4941362;28;20009;-70
2021/04/01 11:43:02;;;;;;;;;;;20.30;51.70;;;;;;4974058;28;19926;-70
2021/04/01 11:45:30;;;;;;;;;;;20.20;51.80;;;;;;4978107;28;20001;-71
2021/04/01 11:47:56;;;;;;;;;;;20.30;51.70;;;;;;4979206;28;19926;-70
2021/04/01 11:50:22;;;;;;;;;;;20.30;51.60;;;;;;4977990;28;20322;-70
2021/04/01 11:52:53;;;;;;;;;;;20.30;51.80;;;;;;4979048;28;20394;-70
2021/04/01 11:55:20;;;;;;;;;;;20.30;51.70;;;;;;4970809;28;20381;-71
2021/04/01 11:57:46;;;;;;;;;;;20.30;51.60;;;;;;4971718;28;20389;-71
2021/04/01 12:00:15;;;;;;;;;;;20.30;51.60;;;;;;4974936;28;19949;-70
2021/04/01 12:02:45;;;;;;;;;;;20.40;51.70;;;;;;4965252;28;20306;-70
2021/04/01 12:05:13;;;;;;;;;;;20.40;51.50;;;;;;4984036;28;19926;-70
2021/04/01 12:07:39;;;;;;;;;;;20.50;51.50;;;;;;4966886;28;20398;-70
2021/04/01 12:10:05;;;;;;;;;;;20.50;51.40;;;;;;4979967;28;19932;-70
2021/04/01 12:12:32;;;;;;;;;;;20.50;51.20;;;;;;4973099;28;19925;-69
2021/04/01 12:14:58;;;;;;;;;;;20.60;51.20;;;;;;4976606;28;19933;-71
2021/04/01 12:17:34;;;;;;;;;;;20.60;51.20;;;;;;4976867;28;19933;-71
2021/04/01 12:20:01;;;;;;;;;;;20.60;51.00;;;;;;4983375;28;20310;-70
2021/04/01 12:22:31;;;;;;;;;;;20.70;51.00;;;;;;4965660;28;19922;-70
2021/04/01 12:24:57;;;;;;;;;;;20.70;51.00;;;;;;4972307;28;19926;-70
2021/04/01 12:27:27;;;;;;;;;;;20.70;51.10;;;;;;4962768;28;20398;-71
2021/04/01 12:29:53;;;;;;;;;;;20.70;51.00;;;;;;4976275;28;19941;-70
2021/04/01 12:32:24;;;;;;;;;;;20.70;50.90;;;;;;4974558;28;19925;-71
2021/04/01 12:34:50;;;;;;;;;;;20.70;50.80;;;;;;4964997;28;20016;-70
2021/04/01 12:37:17;;;;;;;;;;;20.70;50.80;;;;;;4970594;28;19933;-71
2021/04/01 12:39:44;;;;;;;;;;;20.70;50.80;;;;;;4972548;28;20779;-71
2021/04/01 12:42:12;;;;;;;;;;;20.70;50.80;;;;;;4975499;28;19921;-71
2021/04/01 12:44:38;;;;;;;;;;;20.70;50.80;;;;;;4962219;28;20314;-70
2021/04/01 12:47:04;;;;;;;;;;;20.70;50.70;;;;;;4974793;28;20455;-70
2021/04/01 12:49:31;;;;;;;;;;;20.70;50.70;;;;;;4965920;28;19963;-70
2021/04/01 12:52:01;;;;;;;;;;;20.70;50.70;;;;;;4978620;28;19977;-71
2021/04/01 12:54:29;;;;;;;;;;;20.80;50.70;;;;;;5007873;28;19925;-70
2021/04/01 12:56:57;;;;;;;;;;;20.80;50.60;;;;;;5011734;28;19925;-70
2021/04/01 12:59:30;;;;;;;;;;;20.80;50.60;;;;;;4990644;28;20025;-70
2021/04/01 13:02:01;;;;;;;;;;;20.80;50.50;;;;;;4969330;28;19925;-70
2021/04/01 13:04:27;;;;;;;;;;;20.80;50.40;;;;;;4982018;28;20301;-70
2021/04/01 13:07:00;;;;;;;;;;;20.80;50.50;;;;;;4983053;28;19925;-70
2021/04/01 13:12:14;;;;;;;;;;;20.80;50.50;;;;;;4968517;28;19937;-70
2021/04/01 13:14:41;;;;;;;;;;;20.80;50.50;;;;;;4986804;28;20333;-71
2021/04/01 13:17:07;;;;;;;;;;;20.80;50.50;;;;;;4978944;28;20485;-70
2021/04/01 13:19:33;;;;;;;;;;;20.80;50.50;;;;;;4972908;28;19933;-70
2021/04/01 13:22:11;;;;;;;;;;;20.80;50.50;;;;;;4971422;28;19929;-71
2021/04/01 13:24:43;;;;;;;;;;;20.80;50.40;;;;;;4971238;28;19932;-71
2021/04/01 13:27:09;;;;;;;;;;;20.80;50.30;;;;;;4967068;28;19935;-70
2021/04/01 13:29:37;;;;;;;;;;;20.80;50.40;;;;;;4970768;28;20433;-70
2021/04/01 13:32:06;;;;;;;;;;;20.80;50.40;;;;;;4959509;28;19930;-70
2021/04/01 13:34:35;;;;;;;;;;;20.80;50.50;;;;;;4968673;28;19965;-70
2021/04/01 13:37:05;;;;;;;;;;;20.80;50.50;;;;;;4961274;28;20005;-70
2021/04/01 13:39:33;;;;;;;;;;;20.80;50.40;;;;;;4971765;28;20396;-71
2021/04/01 13:42:12;;;;;;;;;;;20.80;50.40;;;;;;4974088;28;19930;-71
2021/04/01 13:44:41;;;;;;;;;;;20.80;50.40;;;;;;4963745;28;20466;-70
2021/04/01 13:47:07;;;;;;;;;;;20.80;50.40;;;;;;4947601;28;19932;-71
2021/04/01 13:49:33;;;;;;;;;;;20.80;50.30;;;;;;4969938;28;20337;-70
2021/04/01 13:52:07;;;;;;;;;;;20.80;50.30;;;;;;4972010;28;20029;-71
2021/04/01 13:54:45;;;;;;;;;;;20.70;50.30;;;;;;4961339;28;20032;-70
2021/04/01 13:57:21;;;;;;;;;;;20.80;50.30;;;;;;4961930;28;21492;-70
2021/04/01 13:59:59;;;;;;;;;;;20.80;50.30;;;;;;4959840;28;19968;-70
2021/04/01 14:10:37;;;;;;;;;;;20.80;50.30;;;;;;4971846;28;20016;-70
2021/04/01 14:13:04;;;;;;;;;;;20.70;50.20;;;;;;4970356;28;20021;-71
2021/04/01 14:15:30;;;;;;;;;;;20.70;50.10;;;;;;4970386;28;19949;-70
2021/04/01 14:17:56;;;;;;;;;;;20.80;50.20;;;;;;4970731;28;19933;-70
2021/04/01 14:20:22;;;;;;;;;;;20.70;50.10;;;;;;4970041;28;20382;-71
2021/04/01 14:22:50;;;;;;;;;;;20.80;50.10;;;;;;4970772;28;19933;-70
2021/04/01 14:25:23;;;;;;;;;;;20.80;50.10;;;;;;4957746;28;19932;-70
2021/04/01 14:27:51;;;;;;;;;;;20.80;50.10;;;;;;4959661;28;20418;-70
2021/04/01 14:30:23;;;;;;;;;;;20.70;50.10;;;;;;4970325;28;20463;-70
2021/04/01 14:32:49;;;;;;;;;;;20.80;50.10;;;;;;4971534;28;20322;-71
2021/04/01 14:35:15;;;;;;;;;;;20.80;50.10;;;;;;4970377;28;19925;-71
2021/04/01 14:37:41;;;;;;;;;;;20.80;50.00;;;;;;4971109;28;19937;-70
2021/04/01 14:40:08;;;;;;;;;;;20.80;50.00;;;;;;4970905;28;20352;-70
2021/04/01 14:42:36;;;;;;;;;;;20.80;49.90;;;;;;4971430;28;20048;-69
2021/04/01 14:45:03;;;;;;;;;;;20.80;49.90;;;;;;4969818;28;19933;-71
2021/04/01 14:47:30;;;;;;;;;;;20.80;49.90;;;;;;4970661;28;19926;-70
2021/04/01 14:49:56;;;;;;;;;;;20.80;49.90;;;;;;4970955;28;20490;-70
2021/04/01 14:52:25;;;;;;;;;;;20.80;49.70;;;;;;4970656;28;19925;-70
2021/04/01 14:54:52;;;;;;;;;;;20.80;49.80;;;;;;4969271;28;19926;-71
2021/04/01 14:57:18;;;;;;;;;;;20.80;49.80;;;;;;4971246;28;20020;-70
2021/04/01 14:59:46;;;;;;;;;;;20.80;49.80;;;;;;4972689;28;20028;-70
2021/04/01 15:02:13;;;;;;;;;;;20.80;49.80;;;;;;4959076;28;19999;-71
2021/04/01 15:04:40;;;;;;;;;;;20.80;49.90;;;;;;4970583;28;19922;-70
2021/04/01 15:07:06;;;;;;;;;;;20.80;49.90;;;;;;4958535;28;19940;-70